sensor_id;sensor_type;location;lat;lon;timestamp;P1;durP1;ratioP1;P2;durP2;ratioP2
71236;SDS011;58984;51.960;5.582;2023-09-30T00:00:23;10.68;;;5.57;;
71236;SDS011;58984;51.960;5.582;2023-09-30T00:02:49;10.40;;;4.97;;
71236;SDS011;58984;51.960;5.582;2023-09-30T00:05:15;10.68;;;5.35;;
71236;SDS011;58984;51.960;5.582;2023-09-30T00:07:44;10.02;;;5.05;;
71236;SDS011;58984;51.960;5.582;2023-09-30T00:10:10;8.93;;;5.50;;
71236;SDS011;58984;51.960;5.582;2023-09-30T00:12:36;13.13;;;5.50;;
71236;SDS011;58984;51.960;5.582;2023-09-30T00:15:02;8.85;;;4.93;;
71236;SDS011;58984;51.960;5.582;2023-09-30T00:17:29;9.43;;;4.80;;
71236;SDS011;58984;51.960;5.582;2023-09-30T00:19:54;12.48;;;5.00;;
71236;SDS011;58984;51.960;5.582;2023-09-30T00:22:20;10.98;;;6.15;;
71236;SDS011;58984;51.960;5.582;2023-09-30T00:24:46;8.82;;;5.22;;
71236;SDS011;58984;51.960;5.582;2023-09-30T00:27:12;9.20;;;5.05;;
71236;SDS011;58984;51.960;5.582;2023-09-30T00:29:37;10.23;;;5.70;;
71236;SDS011;58984;51.960;5.582;2023-09-30T00:32:03;8.35;;;5.85;;
71236;SDS011;58984;51.960;5.582;2023-09-30T00:34:32;12.40;;;5.70;;
71236;SDS011;58984;51.960;5.582;2023-09-30T00:37:00;10.23;;;5.22;;
71236;SDS011;58984;51.960;5.582;2023-09-30T00:39:25;12.52;;;6.35;;
71236;SDS011;58984;51.960;5.582;2023-09-30T00:41:55;8.38;;;5.43;;
71236;SDS011;58984;51.960;5.582;2023-09-30T00:44:21;12.02;;;5.72;;
71236;SDS011;58984;51.960;5.582;2023-09-30T00:46:46;12.20;;;5.68;;
71236;SDS011;58984;51.960;5.582;2023-09-30T00:49:13;9.80;;;5.75;;
71236;SDS011;58984;51.960;5.582;2023-09-30T00:51:39;12.07;;;5.53;;
71236;SDS011;58984;51.960;5.582;2023-09-30T00:54:05;11.05;;;5.82;;
71236;SDS011;58984;51.960;5.582;2023-09-30T00:56:31;9.95;;;5.90;;
71236;SDS011;58984;51.960;5.582;2023-09-30T00:58:58;11.93;;;6.35;;
71236;SDS011;58984;51.960;5.582;2023-09-30T01:01:24;11.55;;;5.85;;
71236;SDS011;58984;51.960;5.582;2023-09-30T01:03:50;11.13;;;5.80;;
71236;SDS011;58984;51.960;5.582;2023-09-30T01:06:16;11.20;;;5.80;;
71236;SDS011;58984;51.960;5.582;2023-09-30T01:08:42;7.30;;;5.50;;
71236;SDS011;58984;51.960;5.582;2023-09-30T01:11:08;9.90;;;5.70;;
71236;SDS011;58984;51.960;5.582;2023-09-30T01:13:34;10.63;;;5.53;;
71236;SDS011;58984;51.960;5.582;2023-09-30T01:16:07;9.15;;;5.28;;
71236;SDS011;58984;51.960;5.582;2023-09-30T01:18:35;10.85;;;5.70;;
71236;SDS011;58984;51.960;5.582;2023-09-30T01:21:03;7.05;;;5.40;;
71236;SDS011;58984;51.960;5.582;2023-09-30T01:23:30;7.70;;;5.35;;
71236;SDS011;58984;51.960;5.582;2023-09-30T01:25:56;14.55;;;6.65;;
71236;SDS011;58984;51.960;5.582;2023-09-30T01:28:22;10.80;;;6.18;;
71236;SDS011;58984;51.960;5.582;2023-09-30T01:30:48;8.15;;;5.30;;
71236;SDS011;58984;51.960;5.582;2023-09-30T01:33:13;11.25;;;5.78;;
71236;SDS011;58984;51.960;5.582;2023-09-30T01:35:42;10.75;;;5.53;;
71236;SDS011;58984;51.960;5.582;2023-09-30T01:38:07;9.77;;;5.82;;
71236;SDS011;58984;51.960;5.582;2023-09-30T01:40:33;12.82;;;5.90;;
71236;SDS011;58984;51.960;5.582;2023-09-30T01:42:58;14.68;;;5.35;;
71236;SDS011;58984;51.960;5.582;2023-09-30T01:45:24;7.53;;;5.22;;
71236;SDS011;58984;51.960;5.582;2023-09-30T01:47:49;11.65;;;5.82;;
71236;SDS011;58984;51.960;5.582;2023-09-30T01:50:15;9.13;;;5.45;;
71236;SDS011;58984;51.960;5.582;2023-09-30T01:52:42;8.55;;;5.40;;
71236;SDS011;58984;51.960;5.582;2023-09-30T01:55:08;10.07;;;5.43;;
71236;SDS011;58984;51.960;5.582;2023-09-30T01:57:33;9.27;;;5.75;;
71236;SDS011;58984;51.960;5.582;2023-09-30T01:59:59;8.75;;;5.75;;
71236;SDS011;58984;51.960;5.582;2023-09-30T02:02:24;13.05;;;6.13;;
71236;SDS011;58984;51.960;5.582;2023-09-30T02:04:51;9.73;;;5.63;;
71236;SDS011;58984;51.960;5.582;2023-09-30T02:07:18;7.10;;;5.07;;
71236;SDS011;58984;51.960;5.582;2023-09-30T02:09:44;14.10;;;5.70;;
71236;SDS011;58984;51.960;5.582;2023-09-30T02:12:10;11.02;;;5.95;;
71236;SDS011;58984;51.960;5.582;2023-09-30T02:14:35;11.57;;;5.93;;
71236;SDS011;58984;51.960;5.582;2023-09-30T02:17:03;10.05;;;6.10;;
71236;SDS011;58984;51.960;5.582;2023-09-30T02:19:29;8.90;;;5.57;;
71236;SDS011;58984;51.960;5.582;2023-09-30T02:21:58;10.00;;;6.35;;
71236;SDS011;58984;51.960;5.582;2023-09-30T02:24:24;14.18;;;6.47;;
71236;SDS011;58984;51.960;5.582;2023-09-30T02:26:50;13.75;;;6.22;;
71236;SDS011;58984;51.960;5.582;2023-09-30T02:29:16;9.18;;;5.07;;
71236;SDS011;58984;51.960;5.582;2023-09-30T02:31:41;8.40;;;6.07;;
71236;SDS011;58984;51.960;5.582;2023-09-30T02:34:07;12.63;;;5.95;;
71236;SDS011;58984;51.960;5.582;2023-09-30T02:36:33;14.27;;;6.60;;
71236;SDS011;58984;51.960;5.582;2023-09-30T02:39:04;16.02;;;6.38;;
71236;SDS011;58984;51.960;5.582;2023-09-30T02:41:30;11.32;;;6.70;;
71236;SDS011;58984;51.960;5.582;2023-09-30T02:43:56;9.80;;;6.03;;
71236;SDS011;58984;51.960;5.582;2023-09-30T02:46:21;11.77;;;5.88;;
71236;SDS011;58984;51.960;5.582;2023-09-30T02:48:47;10.38;;;6.35;;
71236;SDS011;58984;51.960;5.582;2023-09-30T02:51:12;12.38;;;6.30;;
71236;SDS011;58984;51.960;5.582;2023-09-30T02:53:38;9.88;;;6.47;;
71236;SDS011;58984;51.960;5.582;2023-09-30T02:56:04;12.60;;;6.85;;
71236;SDS011;58984;51.960;5.582;2023-09-30T02:58:30;10.40;;;6.15;;
71236;SDS011;58984;51.960;5.582;2023-09-30T03:00:55;17.92;;;7.38;;
71236;SDS011;58984;51.960;5.582;2023-09-30T03:03:21;11.38;;;7.07;;
71236;SDS011;58984;51.960;5.582;2023-09-30T03:05:47;11.40;;;6.57;;
71236;SDS011;58984;51.960;5.582;2023-09-30T03:08:15;9.88;;;7.38;;
71236;SDS011;58984;51.960;5.582;2023-09-30T03:10:41;10.82;;;6.05;;
71236;SDS011;58984;51.960;5.582;2023-09-30T03:13:07;11.18;;;6.25;;
71236;SDS011;58984;51.960;5.582;2023-09-30T03:15:34;12.57;;;6.47;;
71236;SDS011;58984;51.960;5.582;2023-09-30T03:18:00;12.68;;;6.95;;
71236;SDS011;58984;51.960;5.582;2023-09-30T03:20:25;10.00;;;6.70;;
71236;SDS011;58984;51.960;5.582;2023-09-30T03:22:51;11.38;;;6.80;;
71236;SDS011;58984;51.960;5.582;2023-09-30T03:25:18;11.57;;;6.97;;
71236;SDS011;58984;51.960;5.582;2023-09-30T03:27:45;10.85;;;6.22;;
71236;SDS011;58984;51.960;5.582;2023-09-30T03:30:12;15.35;;;7.57;;
71236;SDS011;58984;51.960;5.582;2023-09-30T03:32:40;11.63;;;6.75;;
71236;SDS011;58984;51.960;5.582;2023-09-30T03:35:07;12.27;;;7.40;;
71236;SDS011;58984;51.960;5.582;2023-09-30T03:37:36;14.60;;;7.20;;
71236;SDS011;58984;51.960;5.582;2023-09-30T03:40:02;13.15;;;7.30;;
71236;SDS011;58984;51.960;5.582;2023-09-30T03:42:36;11.63;;;6.78;;
71236;SDS011;58984;51.960;5.582;2023-09-30T03:45:04;12.50;;;7.43;;
71236;SDS011;58984;51.960;5.582;2023-09-30T03:47:32;12.30;;;6.75;;
71236;SDS011;58984;51.960;5.582;2023-09-30T03:49:59;13.10;;;7.85;;
71236;SDS011;58984;51.960;5.582;2023-09-30T03:52:24;18.67;;;7.28;;
71236;SDS011;58984;51.960;5.582;2023-09-30T03:54:51;10.02;;;6.75;;
71236;SDS011;58984;51.960;5.582;2023-09-30T03:57:18;12.23;;;7.60;;
71236;SDS011;58984;51.960;5.582;2023-09-30T03:59:44;13.07;;;6.95;;
71236;SDS011;58984;51.960;5.582;2023-09-30T04:02:11;11.65;;;7.50;;
71236;SDS011;58984;51.960;5.582;2023-09-30T04:04:37;11.38;;;6.70;;
71236;SDS011;58984;51.960;5.582;2023-09-30T04:07:02;13.52;;;7.15;;
71236;SDS011;58984;51.960;5.582;2023-09-30T04:09:30;14.02;;;7.68;;
71236;SDS011;58984;51.960;5.582;2023-09-30T04:11:57;9.93;;;7.20;;
71236;SDS011;58984;51.960;5.582;2023-09-30T04:14:22;12.93;;;7.55;;
71236;SDS011;58984;51.960;5.582;2023-09-30T04:16:50;11.23;;;7.00;;
71236;SDS011;58984;51.960;5.582;2023-09-30T04:19:15;11.02;;;7.32;;
71236;SDS011;58984;51.960;5.582;2023-09-30T04:21:41;12.25;;;7.18;;
71236;SDS011;58984;51.960;5.582;2023-09-30T04:24:08;10.75;;;6.90;;
71236;SDS011;58984;51.960;5.582;2023-09-30T04:26:34;14.18;;;7.15;;
71236;SDS011;58984;51.960;5.582;2023-09-30T04:29:00;10.57;;;7.68;;
71236;SDS011;58984;51.960;5.582;2023-09-30T04:31:27;13.23;;;7.85;;
71236;SDS011;58984;51.960;5.582;2023-09-30T04:33:53;17.92;;;8.30;;
71236;SDS011;58984;51.960;5.582;2023-09-30T04:36:19;15.00;;;7.60;;
71236;SDS011;58984;51.960;5.582;2023-09-30T04:38:46;14.95;;;7.95;;
71236;SDS011;58984;51.960;5.582;2023-09-30T04:41:12;13.05;;;8.57;;
71236;SDS011;58984;51.960;5.582;2023-09-30T04:43:38;12.88;;;7.95;;
71236;SDS011;58984;51.960;5.582;2023-09-30T04:46:04;14.63;;;7.93;;
71236;SDS011;58984;51.960;5.582;2023-09-30T04:48:32;16.98;;;7.97;;
71236;SDS011;58984;51.960;5.582;2023-09-30T04:50:57;13.43;;;7.88;;
71236;SDS011;58984;51.960;5.582;2023-09-30T04:53:23;11.32;;;7.90;;
71236;SDS011;58984;51.960;5.582;2023-09-30T04:55:48;13.32;;;7.85;;
71236;SDS011;58984;51.960;5.582;2023-09-30T04:58:15;13.63;;;7.55;;
71236;SDS011;58984;51.960;5.582;2023-09-30T05:00:41;12.13;;;7.57;;
71236;SDS011;58984;51.960;5.582;2023-09-30T05:03:06;16.55;;;8.50;;
71236;SDS011;58984;51.960;5.582;2023-09-30T05:05:32;12.68;;;7.95;;
71236;SDS011;58984;51.960;5.582;2023-09-30T05:07:59;11.90;;;7.57;;
71236;SDS011;58984;51.960;5.582;2023-09-30T05:10:25;11.73;;;7.28;;
71236;SDS011;58984;51.960;5.582;2023-09-30T05:12:50;10.88;;;7.20;;
71236;SDS011;58984;51.960;5.582;2023-09-30T05:15:19;12.48;;;7.88;;
71236;SDS011;58984;51.960;5.582;2023-09-30T05:17:45;13.32;;;8.02;;
71236;SDS011;58984;51.960;5.582;2023-09-30T05:20:12;13.38;;;7.53;;
71236;SDS011;58984;51.960;5.582;2023-09-30T05:22:42;13.45;;;7.28;;
71236;SDS011;58984;51.960;5.582;2023-09-30T05:25:10;15.23;;;7.85;;
71236;SDS011;58984;51.960;5.582;2023-09-30T05:30:08;11.30;;;7.35;;
71236;SDS011;58984;51.960;5.582;2023-09-30T05:32:35;11.38;;;7.15;;
71236;SDS011;58984;51.960;5.582;2023-09-30T05:35:03;14.02;;;7.57;;
71236;SDS011;58984;51.960;5.582;2023-09-30T05:37:30;14.63;;;7.63;;
71236;SDS011;58984;51.960;5.582;2023-09-30T05:39:56;14.30;;;7.63;;
71236;SDS011;58984;51.960;5.582;2023-09-30T05:42:21;10.98;;;7.05;;
71236;SDS011;58984;51.960;5.582;2023-09-30T05:44:47;9.93;;;7.07;;
71236;SDS011;58984;51.960;5.582;2023-09-30T05:47:13;12.88;;;7.97;;
71236;SDS011;58984;51.960;5.582;2023-09-30T05:49:40;11.25;;;7.18;;
71236;SDS011;58984;51.960;5.582;2023-09-30T05:52:06;11.82;;;7.32;;
71236;SDS011;58984;51.960;5.582;2023-09-30T05:54:32;13.68;;;7.90;;
71236;SDS011;58984;51.960;5.582;2023-09-30T05:56:57;11.52;;;7.28;;
71236;SDS011;58984;51.960;5.582;2023-09-30T05:59:25;12.75;;;7.85;;
71236;SDS011;58984;51.960;5.582;2023-09-30T06:01:51;12.77;;;7.57;;
71236;SDS011;58984;51.960;5.582;2023-09-30T06:04:16;12.18;;;7.45;;
71236;SDS011;58984;51.960;5.582;2023-09-30T06:06:42;13.30;;;7.75;;
71236;SDS011;58984;51.960;5.582;2023-09-30T06:09:08;14.75;;;7.68;;
71236;SDS011;58984;51.960;5.582;2023-09-30T06:11:34;15.15;;;8.13;;
71236;SDS011;58984;51.960;5.582;2023-09-30T06:14:01;11.35;;;7.82;;
71236;SDS011;58984;51.960;5.582;2023-09-30T06:16:27;14.00;;;8.65;;
71236;SDS011;58984;51.960;5.582;2023-09-30T06:18:53;15.77;;;7.82;;
71236;SDS011;58984;51.960;5.582;2023-09-30T06:21:20;13.05;;;7.93;;
71236;SDS011;58984;51.960;5.582;2023-09-30T06:23:46;15.68;;;7.65;;
71236;SDS011;58984;51.960;5.582;2023-09-30T06:26:13;13.77;;;7.82;;
71236;SDS011;58984;51.960;5.582;2023-09-30T06:28:40;16.10;;;8.88;;
71236;SDS011;58984;51.960;5.582;2023-09-30T06:31:09;13.80;;;8.43;;
71236;SDS011;58984;51.960;5.582;2023-09-30T06:33:38;15.25;;;8.77;;
71236;SDS011;58984;51.960;5.582;2023-09-30T06:36:11;14.45;;;8.15;;
71236;SDS011;58984;51.960;5.582;2023-09-30T06:38:39;14.32;;;8.55;;
71236;SDS011;58984;51.960;5.582;2023-09-30T06:41:06;14.80;;;8.45;;
71236;SDS011;58984;51.960;5.582;2023-09-30T06:43:33;14.80;;;8.80;;
71236;SDS011;58984;51.960;5.582;2023-09-30T06:46:05;15.88;;;9.15;;
71236;SDS011;58984;51.960;5.582;2023-09-30T06:48:32;13.75;;;8.18;;
71236;SDS011;58984;51.960;5.582;2023-09-30T06:50:58;16.95;;;9.00;;
71236;SDS011;58984;51.960;5.582;2023-09-30T06:53:24;14.43;;;8.75;;
71236;SDS011;58984;51.960;5.582;2023-09-30T06:55:49;14.25;;;8.90;;
71236;SDS011;58984;51.960;5.582;2023-09-30T06:58:16;16.20;;;8.40;;
71236;SDS011;58984;51.960;5.582;2023-09-30T07:00:46;15.85;;;9.27;;
71236;SDS011;58984;51.960;5.582;2023-09-30T07:03:13;14.82;;;8.93;;
71236;SDS011;58984;51.960;5.582;2023-09-30T07:05:40;14.43;;;8.55;;
71236;SDS011;58984;51.960;5.582;2023-09-30T07:08:06;19.75;;;9.95;;
71236;SDS011;58984;51.960;5.582;2023-09-30T07:10:31;15.32;;;9.20;;
71236;SDS011;58984;51.960;5.582;2023-09-30T07:12:57;16.10;;;9.75;;
71236;SDS011;58984;51.960;5.582;2023-09-30T07:15:23;15.23;;;9.35;;
71236;SDS011;58984;51.960;5.582;2023-09-30T07:17:48;16.92;;;9.20;;
71236;SDS011;58984;51.960;5.582;2023-09-30T07:20:14;13.18;;;9.25;;
71236;SDS011;58984;51.960;5.582;2023-09-30T07:22:40;15.48;;;8.85;;
71236;SDS011;58984;51.960;5.582;2023-09-30T07:25:06;18.25;;;9.50;;
71236;SDS011;58984;51.960;5.582;2023-09-30T07:27:33;14.20;;;9.10;;
71236;SDS011;58984;51.960;5.582;2023-09-30T07:29:59;13.07;;;8.85;;
71236;SDS011;58984;51.960;5.582;2023-09-30T07:32:25;17.33;;;9.23;;
71236;SDS011;58984;51.960;5.582;2023-09-30T07:34:50;15.13;;;10.05;;
71236;SDS011;58984;51.960;5.582;2023-09-30T07:37:16;23.05;;;9.57;;
71236;SDS011;58984;51.960;5.582;2023-09-30T07:39:43;14.60;;;9.02;;
71236;SDS011;58984;51.960;5.582;2023-09-30T07:42:09;13.70;;;8.77;;
71236;SDS011;58984;51.960;5.582;2023-09-30T07:44:34;15.10;;;10.18;;
71236;SDS011;58984;51.960;5.582;2023-09-30T07:47:02;14.45;;;8.77;;
71236;SDS011;58984;51.960;5.582;2023-09-30T07:49:28;14.55;;;8.65;;
71236;SDS011;58984;51.960;5.582;2023-09-30T07:52:03;17.00;;;10.32;;
71236;SDS011;58984;51.960;5.582;2023-09-30T07:54:29;13.10;;;8.48;;
71236;SDS011;58984;51.960;5.582;2023-09-30T07:56:54;14.75;;;9.20;;
71236;SDS011;58984;51.960;5.582;2023-09-30T07:59:20;15.52;;;9.13;;
71236;SDS011;58984;51.960;5.582;2023-09-30T08:01:47;13.70;;;8.85;;
71236;SDS011;58984;51.960;5.582;2023-09-30T08:04:13;14.63;;;8.00;;
71236;SDS011;58984;51.960;5.582;2023-09-30T08:06:38;15.18;;;8.52;;
71236;SDS011;58984;51.960;5.582;2023-09-30T08:09:04;13.95;;;8.23;;
71236;SDS011;58984;51.960;5.582;2023-09-30T08:11:35;17.80;;;8.43;;
71236;SDS011;58984;51.960;5.582;2023-09-30T08:14:02;12.95;;;8.30;;
71236;SDS011;58984;51.960;5.582;2023-09-30T08:16:34;11.60;;;8.02;;
71236;SDS011;58984;51.960;5.582;2023-09-30T08:19:01;12.60;;;8.20;;
71236;SDS011;58984;51.960;5.582;2023-09-30T08:21:28;14.40;;;8.65;;
71236;SDS011;58984;51.960;5.582;2023-09-30T08:23:53;11.93;;;8.65;;
71236;SDS011;58984;51.960;5.582;2023-09-30T08:26:19;16.15;;;8.60;;
71236;SDS011;58984;51.960;5.582;2023-09-30T08:28:45;15.68;;;8.45;;
71236;SDS011;58984;51.960;5.582;2023-09-30T08:31:10;14.68;;;8.95;;
71236;SDS011;58984;51.960;5.582;2023-09-30T08:33:36;14.98;;;9.35;;
71236;SDS011;58984;51.960;5.582;2023-09-30T08:36:05;14.73;;;8.93;;
71236;SDS011;58984;51.960;5.582;2023-09-30T08:38:38;14.75;;;9.23;;
71236;SDS011;58984;51.960;5.582;2023-09-30T08:41:04;14.98;;;9.15;;
71236;SDS011;58984;51.960;5.582;2023-09-30T08:43:30;13.95;;;8.32;;
71236;SDS011;58984;51.960;5.582;2023-09-30T08:46:00;14.20;;;8.35;;
71236;SDS011;58984;51.960;5.582;2023-09-30T08:48:28;13.48;;;8.32;;
71236;SDS011;58984;51.960;5.582;2023-09-30T08:50:55;11.40;;;7.88;;
71236;SDS011;58984;51.960;5.582;2023-09-30T08:53:22;17.13;;;8.63;;
71236;SDS011;58984;51.960;5.582;2023-09-30T08:55:49;12.18;;;6.93;;
71236;SDS011;58984;51.960;5.582;2023-09-30T08:58:21;15.25;;;7.88;;
71236;SDS011;58984;51.960;5.582;2023-09-30T09:00:49;9.82;;;7.10;;
71236;SDS011;58984;51.960;5.582;2023-09-30T09:03:15;13.90;;;7.32;;
71236;SDS011;58984;51.960;5.582;2023-09-30T09:05:43;16.10;;;7.60;;
71236;SDS011;58984;51.960;5.582;2023-09-30T09:08:08;13.27;;;7.88;;
71236;SDS011;58984;51.960;5.582;2023-09-30T09:10:34;14.30;;;7.75;;
71236;SDS011;58984;51.960;5.582;2023-09-30T09:13:00;12.38;;;6.88;;
71236;SDS011;58984;51.960;5.582;2023-09-30T09:15:26;15.18;;;6.82;;
71236;SDS011;58984;51.960;5.582;2023-09-30T09:17:53;19.10;;;8.90;;
71236;SDS011;58984;51.960;5.582;2023-09-30T09:20:20;11.90;;;7.13;;
71236;SDS011;58984;51.960;5.582;2023-09-30T09:22:48;13.63;;;7.43;;
71236;SDS011;58984;51.960;5.582;2023-09-30T09:25:19;15.57;;;8.18;;
71236;SDS011;58984;51.960;5.582;2023-09-30T09:27:47;13.98;;;7.25;;
71236;SDS011;58984;51.960;5.582;2023-09-30T09:30:17;12.35;;;6.82;;
71236;SDS011;58984;51.960;5.582;2023-09-30T09:32:53;9.50;;;6.32;;
71236;SDS011;58984;51.960;5.582;2023-09-30T09:35:25;9.00;;;6.22;;
71236;SDS011;58984;51.960;5.582;2023-09-30T09:38:12;10.68;;;6.35;;
71236;SDS011;58984;51.960;5.582;2023-09-30T09:40:38;9.27;;;6.07;;
71236;SDS011;58984;51.960;5.582;2023-09-30T09:43:05;15.77;;;6.18;;
71236;SDS011;58984;51.960;5.582;2023-09-30T09:45:35;10.60;;;5.43;;
71236;SDS011;58984;51.960;5.582;2023-09-30T09:48:03;12.75;;;5.35;;
71236;SDS011;58984;51.960;5.582;2023-09-30T09:50:29;10.27;;;5.88;;
71236;SDS011;58984;51.960;5.582;2023-09-30T09:52:58;10.73;;;5.45;;
71236;SDS011;58984;51.960;5.582;2023-09-30T09:55:26;10.60;;;5.65;;
71236;SDS011;58984;51.960;5.582;2023-09-30T09:57:52;10.48;;;5.18;;
71236;SDS011;58984;51.960;5.582;2023-09-30T10:00:20;9.93;;;5.63;;
71236;SDS011;58984;51.960;5.582;2023-09-30T10:02:48;9.50;;;5.68;;
71236;SDS011;58984;51.960;5.582;2023-09-30T10:05:15;12.40;;;5.32;;
71236;SDS011;58984;51.960;5.582;2023-09-30T10:08:01;10.65;;;5.10;;
71236;SDS011;58984;51.960;5.582;2023-09-30T10:10:35;8.32;;;4.97;;
71236;SDS011;58984;51.960;5.582;2023-09-30T10:13:02;10.52;;;4.75;;
71236;SDS011;58984;51.960;5.582;2023-09-30T10:20:31;7.07;;;4.30;;
71236;SDS011;58984;51.960;5.582;2023-09-30T10:25:41;13.07;;;5.47;;
71236;SDS011;58984;51.960;5.582;2023-09-30T10:33:34;9.13;;;4.47;;
71236;SDS011;58984;51.960;5.582;2023-09-30T10:35:59;7.80;;;4.93;;
71236;SDS011;58984;51.960;5.582;2023-09-30T10:41:00;9.55;;;4.85;;
71236;SDS011;58984;51.960;5.582;2023-09-30T10:43:34;8.00;;;4.45;;
71236;SDS011;58984;51.960;5.582;2023-09-30T10:48:54;5.97;;;4.00;;
71236;SDS011;58984;51.960;5.582;2023-09-30T10:51:20;7.43;;;4.70;;
71236;SDS011;58984;51.960;5.582;2023-09-30T10:53:55;11.77;;;4.90;;
71236;SDS011;58984;51.960;5.582;2023-09-30T10:56:31;7.63;;;4.45;;
71236;SDS011;58984;51.960;5.582;2023-09-30T11:01:24;10.15;;;4.50;;
71236;SDS011;58984;51.960;5.582;2023-09-30T11:03:50;10.88;;;4.70;;
71236;SDS011;58984;51.960;5.582;2023-09-30T11:06:23;8.80;;;4.20;;
71236;SDS011;58984;51.960;5.582;2023-09-30T11:08:53;9.45;;;4.78;;
71236;SDS011;58984;51.960;5.582;2023-09-30T11:11:31;8.57;;;4.22;;
71236;SDS011;58984;51.960;5.582;2023-09-30T11:14:22;5.97;;;4.07;;
71236;SDS011;58984;51.960;5.582;2023-09-30T11:16:59;9.25;;;4.65;;
71236;SDS011;58984;51.960;5.582;2023-09-30T11:19:27;7.43;;;4.13;;
71236;SDS011;58984;51.960;5.582;2023-09-30T11:22:10;6.53;;;3.72;;
71236;SDS011;58984;51.960;5.582;2023-09-30T11:24:36;7.13;;;3.97;;
71236;SDS011;58984;51.960;5.582;2023-09-30T11:27:02;7.85;;;4.20;;
71236;SDS011;58984;51.960;5.582;2023-09-30T11:29:28;7.60;;;3.88;;
71236;SDS011;58984;51.960;5.582;2023-09-30T11:31:53;5.85;;;3.60;;
71236;SDS011;58984;51.960;5.582;2023-09-30T11:34:20;5.53;;;3.55;;
71236;SDS011;58984;51.960;5.582;2023-09-30T11:37:00;5.50;;;3.85;;
71236;SDS011;58984;51.960;5.582;2023-09-30T11:39:30;6.03;;;3.90;;
71236;SDS011;58984;51.960;5.582;2023-09-30T11:41:56;9.15;;;3.75;;
71236;SDS011;58984;51.960;5.582;2023-09-30T11:44:22;7.38;;;4.05;;
71236;SDS011;58984;51.960;5.582;2023-09-30T11:52:00;6.88;;;3.88;;
71236;SDS011;58984;51.960;5.582;2023-09-30T11:54:31;10.82;;;4.15;;
71236;SDS011;58984;51.960;5.582;2023-09-30T11:56:57;10.20;;;4.22;;
71236;SDS011;58984;51.960;5.582;2023-09-30T11:59:24;10.93;;;3.72;;
71236;SDS011;58984;51.960;5.582;2023-09-30T12:01:49;7.35;;;3.92;;
71236;SDS011;58984;51.960;5.582;2023-09-30T12:04:16;6.55;;;3.30;;
71236;SDS011;58984;51.960;5.582;2023-09-30T12:06:46;7.00;;;3.95;;
71236;SDS011;58984;51.960;5.582;2023-09-30T12:09:13;10.63;;;3.40;;
71236;SDS011;58984;51.960;5.582;2023-09-30T12:11:40;7.97;;;3.72;;
71236;SDS011;58984;51.960;5.582;2023-09-30T12:14:08;8.20;;;3.90;;
71236;SDS011;58984;51.960;5.582;2023-09-30T12:16:37;8.00;;;3.22;;
71236;SDS011;58984;51.960;5.582;2023-09-30T12:19:03;6.45;;;3.30;;
71236;SDS011;58984;51.960;5.582;2023-09-30T12:21:31;7.05;;;3.33;;
71236;SDS011;58984;51.960;5.582;2023-09-30T12:23:56;8.45;;;3.88;;
71236;SDS011;58984;51.960;5.582;2023-09-30T12:26:22;8.20;;;3.75;;
71236;SDS011;58984;51.960;5.582;2023-09-30T12:28:49;7.03;;;3.08;;
71236;SDS011;58984;51.960;5.582;2023-09-30T12:31:14;7.47;;;3.28;;
71236;SDS011;58984;51.960;5.582;2023-09-30T12:33:40;4.75;;;2.75;;
71236;SDS011;58984;51.960;5.582;2023-09-30T12:36:06;9.23;;;3.67;;
71236;SDS011;58984;51.960;5.582;2023-09-30T12:38:32;7.63;;;3.50;;
71236;SDS011;58984;51.960;5.582;2023-09-30T12:40:58;6.85;;;3.90;;
71236;SDS011;58984;51.960;5.582;2023-09-30T12:43:25;5.03;;;3.10;;
71236;SDS011;58984;51.960;5.582;2023-09-30T12:45:51;6.45;;;3.53;;
71236;SDS011;58984;51.960;5.582;2023-09-30T12:48:16;6.63;;;3.40;;
71236;SDS011;58984;51.960;5.582;2023-09-30T12:50:42;5.57;;;2.70;;
71236;SDS011;58984;51.960;5.582;2023-09-30T12:53:08;6.03;;;3.15;;
71236;SDS011;58984;51.960;5.582;2023-09-30T12:55:34;8.32;;;3.85;;
71236;SDS011;58984;51.960;5.582;2023-09-30T12:58:00;7.55;;;3.20;;
71236;SDS011;58984;51.960;5.582;2023-09-30T13:00:26;7.25;;;3.60;;
71236;SDS011;58984;51.960;5.582;2023-09-30T13:02:52;10.48;;;5.03;;
71236;SDS011;58984;51.960;5.582;2023-09-30T13:05:17;16.10;;;4.60;;
71236;SDS011;58984;51.960;5.582;2023-09-30T13:07:43;12.65;;;4.65;;
71236;SDS011;58984;51.960;5.582;2023-09-30T13:10:09;7.07;;;4.43;;
71236;SDS011;58984;51.960;5.582;2023-09-30T13:12:35;10.88;;;4.80;;
71236;SDS011;58984;51.960;5.582;2023-09-30T13:15:06;8.02;;;4.50;;
71236;SDS011;58984;51.960;5.582;2023-09-30T13:17:33;9.98;;;4.70;;
71236;SDS011;58984;51.960;5.582;2023-09-30T13:20:07;8.88;;;4.25;;
71236;SDS011;58984;51.960;5.582;2023-09-30T13:22:34;7.35;;;4.15;;
71236;SDS011;58984;51.960;5.582;2023-09-30T13:25:03;10.82;;;4.13;;
71236;SDS011;58984;51.960;5.582;2023-09-30T13:27:33;9.63;;;4.70;;
71236;SDS011;58984;51.960;5.582;2023-09-30T13:29:59;11.93;;;5.65;;
71236;SDS011;58984;51.960;5.582;2023-09-30T13:32:26;12.27;;;5.57;;
71236;SDS011;58984;51.960;5.582;2023-09-30T13:34:52;15.02;;;5.63;;
71236;SDS011;58984;51.960;5.582;2023-09-30T13:37:20;14.63;;;5.80;;
71236;SDS011;58984;51.960;5.582;2023-09-30T13:39:47;14.80;;;5.35;;
71236;SDS011;58984;51.960;5.582;2023-09-30T13:42:15;27.73;;;6.05;;
71236;SDS011;58984;51.960;5.582;2023-09-30T13:44:48;15.40;;;5.97;;
71236;SDS011;58984;51.960;5.582;2023-09-30T13:47:27;14.50;;;5.32;;
71236;SDS011;58984;51.960;5.582;2023-09-30T13:49:55;14.18;;;5.40;;
71236;SDS011;58984;51.960;5.582;2023-09-30T13:52:21;11.00;;;4.78;;
71236;SDS011;58984;51.960;5.582;2023-09-30T13:54:50;8.95;;;4.28;;
71236;SDS011;58984;51.960;5.582;2023-09-30T13:57:15;9.60;;;4.57;;
71236;SDS011;58984;51.960;5.582;2023-09-30T13:59:48;9.45;;;4.60;;
71236;SDS011;58984;51.960;5.582;2023-09-30T14:02:16;6.43;;;4.45;;
71236;SDS011;58984;51.960;5.582;2023-09-30T14:04:45;8.85;;;4.75;;
71236;SDS011;58984;51.960;5.582;2023-09-30T14:07:12;8.10;;;4.20;;
71236;SDS011;58984;51.960;5.582;2023-09-30T14:09:58;6.40;;;4.25;;
71236;SDS011;58984;51.960;5.582;2023-09-30T14:12:35;7.75;;;3.75;;
71236;SDS011;58984;51.960;5.582;2023-09-30T14:15:16;6.70;;;4.00;;
71236;SDS011;58984;51.960;5.582;2023-09-30T14:21:55;9.25;;;4.18;;
71236;SDS011;58984;51.960;5.582;2023-09-30T14:35:09;13.20;;;5.03;;
71236;SDS011;58984;51.960;5.582;2023-09-30T14:37:49;6.85;;;4.43;;
71236;SDS011;58984;51.960;5.582;2023-09-30T14:40:57;8.77;;;4.55;;
71236;SDS011;58984;51.960;5.582;2023-09-30T14:43:22;7.90;;;4.22;;
71236;SDS011;58984;51.960;5.582;2023-09-30T14:45:48;10.35;;;4.80;;
71236;SDS011;58984;51.960;5.582;2023-09-30T14:48:13;9.38;;;4.13;;
71236;SDS011;58984;51.960;5.582;2023-09-30T14:51:01;10.25;;;4.88;;
71236;SDS011;58984;51.960;5.582;2023-09-30T14:53:25;9.30;;;4.57;;
71236;SDS011;58984;51.960;5.582;2023-09-30T14:55:51;8.88;;;4.07;;
71236;SDS011;58984;51.960;5.582;2023-09-30T14:58:17;9.05;;;4.90;;
71236;SDS011;58984;51.960;5.582;2023-09-30T15:00:42;8.75;;;4.88;;
71236;SDS011;58984;51.960;5.582;2023-09-30T15:03:08;8.85;;;4.82;;
71236;SDS011;58984;51.960;5.582;2023-09-30T15:05:34;10.45;;;4.45;;
71236;SDS011;58984;51.960;5.582;2023-09-30T15:08:00;9.15;;;4.63;;
71236;SDS011;58984;51.960;5.582;2023-09-30T15:10:28;5.15;;;4.10;;
71236;SDS011;58984;51.960;5.582;2023-09-30T15:12:54;12.43;;;5.20;;
71236;SDS011;58984;51.960;5.582;2023-09-30T15:15:20;11.07;;;4.68;;
71236;SDS011;58984;51.960;5.582;2023-09-30T15:17:47;7.22;;;4.30;;
71236;SDS011;58984;51.960;5.582;2023-09-30T15:20:12;7.32;;;4.57;;
71236;SDS011;58984;51.960;5.582;2023-09-30T15:22:38;8.15;;;4.45;;